Reliance, Wyoming
Current Conditions -  °F | °C
As of 7:54 PM on Monday 20 Oct 2014 (Local Time) from KRKS Reporting Station
Scattered Clouds Scattered Clouds  
Wind Chill: 56°   Ceiling: Unl
Heat Index: 56°   Visibility: 10mi
Dew Point: 31°   Wind: 9mph
Humidity: 39%   Direction: 190°S
Pressure: 30.09"   Gusts: NA
Location:  41.67°N, 109.2°W
Report Text: KRKS 210154Z AUTO 19008KT 10SM SCT100 13/M01 A3009 RMK AO2 SLP152 T01331006
Loading
Personal Weather Stations






























Interactive Weather Map
Tropical Storm Tracking
New forecast layout! Learn more

10-Day Weather Forecast

Advertisements
Track Severe Weather on mobile